Time;durP1;ratioP1;P1;durP2;ratioP2;P2;SDS_P1;SDS_P2;PMS_P1;PMS_P2;Temp;Humidity;BMP_temperature;BMP_pressure;BME280_temperature;BME280_humidity;BME280_pressure;Samples;Min_cycle;Max_cycle;Signal;HPM_P1;HPM_P2
2022/05/19 00:01:06;;;;;;;28.83;23.98;;;;;;;16.70;80.79;101832.28;2087328;28;44946;-67
2022/05/19 00:02:10;;;;;;;27.05;22.02;;;;;;;16.65;80.86;101828.84;2078643;28;44211;-67
2022/05/19 00:03:12;;;;;;;29.45;25.50;;;;;;;16.64;81.27;101832.50;2080974;28;44475;-68
2022/05/19 00:04:14;;;;;;;28.75;25.63;;;;;;;16.64;80.99;101832.50;2087368;28;46916;-68
2022/05/19 00:05:15;;;;;;;31.92;26.58;;;;;;;16.64;81.51;101834.31;2087209;28;46798;-67
2022/05/19 00:06:17;;;;;;;35.42;28.10;;;;;;;16.61;81.58;101829.88;2088804;28;34407;-67
2022/05/19 00:07:19;;;;;;;28.48;24.35;;;;;;;16.57;81.83;101834.50;2087425;28;44153;-67
2022/05/19 00:08:21;;;;;;;27.23;24.23;;;;;;;16.56;81.72;101838.16;2087408;28;46021;-68
2022/05/19 00:09:27;;;;;;;32.97;27.13;;;;;;;16.53;81.92;101829.28;2079701;28;20038;-68
2022/05/19 00:10:28;;;;;;;28.13;24.48;;;;;;;16.49;81.51;101836.63;2079561;28;43322;-67
2022/05/19 00:11:32;;;;;;;27.45;24.40;;;;;;;16.46;81.47;101833.13;2088365;28;20077;-68
2022/05/19 00:12:35;;;;;;;38.22;31.85;;;;;;;16.45;81.89;101834.03;2087322;28;44333;-67
2022/05/19 00:13:37;;;;;;;32.80;28.42;;;;;;;16.46;82.59;101830.44;2086804;28;44030;-67
2022/05/19 00:14:39;;;;;;;37.25;30.35;;;;;;;16.49;82.91;101824.88;2078304;28;42342;-68
2022/05/19 00:15:40;;;;;;;41.42;32.38;;;;;;;16.50;82.75;101823.97;2070647;28;45340;-67
2022/05/19 00:16:43;;;;;;;40.50;32.03;;;;;;;16.52;82.08;101827.50;2078862;28;45549;-68
2022/05/19 00:17:45;;;;;;;37.08;28.67;;;;;;;16.52;82.47;101819.38;2087494;28;45306;-68
2022/05/19 00:18:47;;;;;;;36.30;30.20;;;;;;;16.52;82.70;101819.38;2087817;28;43831;-68
2022/05/19 00:19:48;;;;;;;37.55;29.20;;;;;;;16.51;81.91;101820.31;2087538;28;43574;-68
2022/05/19 00:20:50;;;;;;;36.97;30.20;;;;;;;16.50;82.34;101818.56;2088663;28;20038;-68
2022/05/19 00:21:53;;;;;;;37.00;30.02;;;;;;;16.49;82.21;101822.19;2078539;28;40626;-68
2022/05/19 00:23:01;;;;;;;37.40;31.50;;;;;;;16.49;81.74;101820.38;2080552;28;20050;-67
2022/05/19 00:24:06;;;;;;;37.72;30.10;;;;;;;16.47;81.90;101822.22;2087679;28;44214;-68
2022/05/19 00:25:08;;;;;;;39.38;32.13;;;;;;;16.49;82.79;101819.47;2087858;28;44506;-67
2022/05/19 00:26:09;;;;;;;39.90;32.85;;;;;;;16.52;82.87;101819.38;2087493;28;45629;-68
2022/05/19 00:27:11;;;;;;;40.85;33.35;;;;;;;16.50;82.46;101816.72;2078372;28;45997;-68
2022/05/19 00:28:13;;;;;;;37.53;30.90;;;;;;;16.47;82.49;101827.63;2079613;28;40232;-68
2022/05/19 00:29:15;;;;;;;38.42;31.35;;;;;;;16.46;82.44;101825.03;2087259;28;45190;-67
2022/05/19 00:30:16;;;;;;;33.83;27.98;;;;;;;16.45;82.37;101825.94;2087439;28;45975;-68
2022/05/19 00:31:18;;;;;;;37.83;28.17;;;;;;;16.42;82.15;101826.94;2087656;28;45483;-68
2022/05/19 00:32:20;;;;;;;37.40;28.90;;;;;;;16.40;82.19;101826.97;2087032;28;43412;-68
2022/05/19 00:33:22;;;;;;;39.38;31.38;;;;;;;16.42;82.49;101827.81;2087333;28;38443;-68
2022/05/19 00:34:24;;;;;;;37.75;30.38;;;;;;;16.44;82.87;101824.16;2087379;28;45566;-67
2022/05/19 00:35:26;;;;;;;41.28;32.20;;;;;;;16.42;82.91;101819.69;2087416;28;45685;-68
2022/05/19 00:36:28;;;;;;;41.90;33.85;;;;;;;16.41;83.09;101828.72;2087617;28;44159;-68
2022/05/19 00:37:31;;;;;;;42.92;33.00;;;;;;;16.42;83.30;101819.69;2087858;28;20044;-68
2022/05/19 00:38:34;;;;;;;38.45;33.10;;;;;;;16.41;82.91;101823.31;2087913;28;44872;-68
2022/05/19 00:39:36;;;;;;;36.90;30.98;;;;;;;16.42;83.41;101822.41;2087292;28;44483;-68
2022/05/19 00:40:43;;;;;;;44.08;35.88;;;;;;;16.42;83.15;101825.09;2087545;28;44480;-67
2022/05/19 00:41:47;;;;;;;44.72;34.95;;;;;;;16.41;82.98;101820.63;2088483;28;20102;-68
2022/05/19 00:43:09;;;;;;;45.05;34.78;;;;;;;16.43;82.97;101825.97;2087966;28;20119;-68
2022/05/19 00:44:12;;;;;;;42.22;34.65;;;;;;;16.42;83.13;101818.81;2087428;28;34690;-68
2022/05/19 00:45:21;;;;;;;44.60;35.88;;;;;;;16.42;82.82;101822.41;2078455;28;44456;-68
2022/05/19 00:46:30;;;;;;;47.67;36.83;;;;;;;16.40;83.02;101818.88;2079969;28;45759;-68
2022/05/19 00:48:06;;;;;;;49.22;39.58;;;;;;;16.40;83.18;101817.97;2087160;28;28367;-68
2022/05/19 00:49:25;;;;;;;48.05;37.72;;;;;;;16.38;82.75;101807.22;2086886;28;46367;-68
2022/05/19 00:50:45;;;;;;;50.35;37.92;;;;;;;16.37;82.62;101815.38;2078677;28;44358;-68
2022/05/19 00:52:02;;;;;;;;;;;;;;;16.37;82.81;101812.69;2083087;28;45471;-68
2022/05/19 00:53:11;;;;;;;49.08;38.97;;;;;;;16.37;83.01;101810.84;2087664;28;46274;-68
2022/05/19 00:54:24;;;;;;;55.83;40.67;;;;;;;16.37;82.38;101810.84;2070094;28;40172;-68
2022/05/19 00:55:34;;;;;;;57.35;44.35;;;;;;;16.36;82.95;101811.78;2074350;28;43937;-68
2022/05/19 00:56:50;;;;;;;53.63;42.65;;;;;;;16.37;83.09;101816.25;2078700;28;45854;-68
2022/05/19 00:58:05;;;;;;;54.88;43.78;;;;;;;16.35;82.82;101811.84;2081711;28;43891;-68
2022/05/19 00:59:12;;;;;;;50.97;41.28;;;;;;;16.32;83.51;101807.41;2064657;28;44704;-68
2022/05/19 01:00:20;;;;;;;55.10;43.15;;;;;;;16.32;82.90;101811.94;2072715;28;43020;-67
2022/05/19 01:01:22;;;;;;;52.78;40.58;;;;;;;16.29;83.27;101815.63;2069555;28;44755;-68
2022/05/19 01:02:34;;;;;;;52.50;41.92;;;;;;;16.26;83.31;101806.72;2071436;28;46274;-67
2022/05/19 01:03:45;;;;;;;54.97;43.75;;;;;;;16.24;83.59;101804.09;2086566;28;45599;-67
2022/05/19 01:05:06;;;;;;;57.78;45.17;;;;;;;16.24;83.67;101809.50;2078315;28;45174;-67
2022/05/19 01:06:15;;;;;;;56.95;45.95;;;;;;;16.23;84.02;101814.00;2081962;28;44366;-68
2022/05/19 01:07:32;;;;;;;60.83;46.38;;;;;;;16.21;84.24;101809.59;2087708;28;45275;-67
2022/05/19 01:09:07;;;;;;;56.63;44.40;;;;;;;16.19;83.92;101812.34;2079922;28;45846;-67
2022/05/19 01:10:09;;;;;;;61.60;48.83;;;;;;;16.18;84.44;101813.25;2065755;28;43214;-67
2022/05/19 01:11:13;;;;;;;64.45;49.72;;;;;;;16.17;84.67;101816.03;2071892;28;46772;-68
2022/05/19 01:12:14;;;;;;;61.97;49.25;;;;;;;16.15;84.32;101815.19;2079911;28;44738;-68
2022/05/19 01:13:20;;;;;;;61.13;48.67;;;;;;;16.13;84.22;101806.25;2089966;28;20142;-68
2022/05/19 01:14:22;;;;;;;59.47;47.95;;;;;;;16.10;84.36;101811.78;2079439;28;45035;-68
2022/05/19 01:15:24;;;;;;;65.30;52.55;;;;;;;16.13;84.20;101817.06;2080705;28;44116;-68
2022/05/19 01:16:26;;;;;;;58.45;47.90;;;;;;;16.08;84.27;101809.13;2088293;28;44830;-67
2022/05/19 01:17:28;;;;;;;67.40;52.65;;;;;;;16.13;85.79;101812.56;2080602;28;43562;-68
2022/05/19 01:18:31;;;;;;;66.70;51.50;;;;;;;16.11;84.69;101802.72;2080149;28;43913;-67
2022/05/19 01:19:39;;;;;;;65.93;52.38;;;;;;;16.09;84.82;101815.41;2080462;28;33883;-68
2022/05/19 01:20:43;;;;;;;52.65;45.47;;;;;;;16.05;84.94;101811.03;2080146;28;43609;-68
2022/05/19 01:21:46;;;;;;;66.70;52.38;;;;;;;16.02;84.68;101810.19;2079624;28;45657;-68
2022/05/19 01:22:55;;;;;;;59.65;49.53;;;;;;;16.02;84.98;101817.41;2080640;28;20053;-68
2022/05/19 01:24:22;;;;;;;76.10;60.50;;;;;;;16.00;85.73;101812.03;2081224;28;45301;-68
2022/05/19 01:25:40;;;;;;;75.68;60.60;;;;;;;16.01;86.23;101818.34;2088664;28;44793;-68
2022/05/19 01:26:52;;;;;;;79.97;62.72;;;;;;;15.99;86.50;101804.88;2079358;28;44171;-68
2022/05/19 01:27:54;;;;;;;84.07;64.95;;;;;;;15.99;87.19;101813.00;2073496;28;44064;-68
2022/05/19 01:28:58;;;;;;;82.55;66.47;;;;;;;15.98;87.09;101813.91;2071847;28;43722;-68
2022/05/19 01:30:01;;;;;;;84.53;67.20;;;;;;;15.97;86.83;101814.88;2071838;28;42759;-68
2022/05/19 01:31:03;;;;;;;92.75;73.97;;;;;;;15.99;87.36;101809.41;2072013;28;46425;-68
2022/05/19 01:32:05;;;;;;;95.15;71.20;;;;;;;15.96;87.64;101807.69;2080524;28;44546;-68
2022/05/19 01:33:09;;;;;;;96.65;75.47;;;;;;;15.97;87.62;101817.56;2071217;28;45184;-68
2022/05/19 01:34:10;;;;;;;103.50;81.82;;;;;;;15.98;88.38;101807.63;2063631;28;45663;-68
2022/05/19 01:35:12;;;;;;;101.10;78.38;;;;;;;15.94;87.25;101812.25;2070865;28;45306;-68
2022/05/19 01:36:14;;;;;;;102.25;80.43;;;;;;;15.94;88.15;101809.53;2080313;28;46119;-68
2022/05/19 01:37:15;;;;;;;109.97;85.85;;;;;;;15.94;88.43;101806.84;2071013;28;44925;-68
2022/05/19 01:38:33;;;;;;;93.40;73.45;;;;;;;15.89;87.86;101808.81;2073845;28;20165;-69
2022/05/19 01:39:53;;;;;;;96.60;79.40;;;;;;;15.89;87.99;101802.53;2069926;28;20143;-68
2022/05/19 01:41:33;;;;;;;90.63;72.60;;;;;;;15.84;87.67;101810.75;2064331;28;44213;-68
2022/05/19 01:43:08;;;;;;;90.43;71.32;;;;;;;15.82;88.11;101807.22;2078523;28;34259;-68
2022/05/19 01:44:31;;;;;;;98.80;79.05;;;;;;;15.79;88.44;101802.81;2071198;28;45855;-68
2022/05/19 01:45:50;;;;;;;114.25;87.82;;;;;;;15.82;89.51;101802.69;2069541;28;38391;-68
2022/05/19 01:47:06;;;;;;;94.22;74.07;;;;;;;15.75;88.67;101806.50;2077077;28;20069;-68
2022/05/19 01:48:37;;;;;;;111.47;90.50;;;;;;;15.79;89.86;101804.59;2071084;28;44946;-68
2022/05/19 01:49:53;;;;;;;;;;;;;;;15.76;89.53;101802.91;2077976;28;43077;-68
2022/05/19 01:51:44;;;;;;;107.05;80.90;;;;;;;15.70;88.76;101802.16;2081223;28;19995;-67
2022/05/19 01:53:06;;;;;;;116.80;86.55;;;;;;;15.73;89.72;101807.47;2080033;28;43934;-68
2022/05/19 01:54:32;;;;;;;94.53;74.95;;;;;;;15.68;89.07;101799.50;2080185;28;45163;-68
2022/05/19 01:55:51;;;;;;;98.70;77.13;;;;;;;15.66;89.45;101802.25;2072369;28;20049;-68
2022/05/19 01:57:09;;;;;;;95.22;76.43;;;;;;;15.63;89.15;101799.66;2073688;28;43181;-69
2022/05/19 01:58:25;;;;;;;102.68;78.40;;;;;;;15.62;89.19;101799.69;2079674;28;45840;-68
2022/05/19 02:00:06;;;;;;;88.38;70.07;;;;;;;15.58;89.37;101804.31;2071154;28;35583;-68
2022/05/19 02:01:17;;;;;;;104.10;79.95;;;;;;;15.59;89.93;101792.56;2079826;28;20042;-68
2022/05/19 02:02:37;;;;;;;99.10;77.45;;;;;;;15.59;89.91;101795.25;2079720;28;28759;-68
2022/05/19 02:04:22;;;;;;;105.55;84.07;;;;;;;15.59;90.23;101789.88;2071330;28;44445;-67
2022/05/19 02:05:43;;;;;;;111.97;88.13;;;;;;;15.58;89.94;101798.03;2077503;28;44687;-68
2022/05/19 02:06:54;;;;;;;101.68;80.38;;;;;;;15.55;89.51;101796.28;2079126;28;44141;-68
2022/05/19 02:08:00;;;;;;;107.53;84.85;;;;;;;15.56;89.92;101794.47;2071269;28;43664;-68
2022/05/19 02:09:09;;;;;;;113.80;89.45;;;;;;;15.63;90.57;101790.66;2072999;28;44296;-68
2022/05/19 02:10:18;;;;;;;112.50;86.15;;;;;;;15.58;90.32;101785.41;2080317;28;45435;-68
2022/05/19 02:11:31;;;;;;;96.22;77.78;;;;;;;15.52;89.96;101782.88;2070639;28;45318;-68
2022/05/19 02:12:34;;;;;;;106.18;80.72;;;;;;;15.52;89.79;101787.41;2073095;28;44375;-68
2022/05/19 02:13:37;;;;;;;119.82;93.13;;;;;;;15.56;90.77;101779.19;2080427;28;40591;-68
2022/05/19 02:14:53;;;;;;;110.45;88.10;;;;;;;15.56;90.58;101784.59;2079707;28;45840;-68
2022/05/19 02:15:55;;;;;;;121.40;92.28;;;;;;;15.54;90.63;101783.75;2079684;28;45329;-68
2022/05/19 02:16:59;;;;;;;102.57;80.70;;;;;;;15.51;90.23;101772.16;2070589;28;44957;-68
2022/05/19 02:18:02;;;;;;;110.28;83.70;;;;;;;15.46;90.07;101770.47;2072704;28;20047;-68
2022/05/19 02:19:05;;;;;;;121.10;95.05;;;;;;;15.49;90.58;101777.59;2070320;28;46025;-68
2022/05/19 02:20:11;;;;;;;119.65;97.05;;;;;;;15.50;91.20;101767.69;2071388;28;43945;-68
2022/05/19 02:21:13;;;;;;;121.55;95.50;;;;;;;15.50;91.01;101767.69;2079234;28;45362;-68
2022/05/19 02:22:22;;;;;;;103.88;83.40;;;;;;;15.47;90.79;101763.28;2078780;28;44935;-68
2022/05/19 02:23:26;;;;;;;110.75;88.38;;;;;;;15.45;90.68;101766.00;2080218;28;20825;-67
2022/05/19 02:24:29;;;;;;;129.65;101.90;;;;;;;15.46;90.87;101761.50;2079976;28;31285;-68
2022/05/19 02:25:40;;;;;;;129.77;105.28;;;;;;;15.45;91.32;101759.72;2079827;28;46202;-68
2022/05/19 02:26:42;;;;;;;119.18;96.72;;;;;;;15.42;91.39;101766.09;2079286;28;43945;-68
2022/05/19 02:28:06;;;;;;;102.25;81.10;;;;;;;15.41;91.08;101763.44;2079354;28;45057;-68
2022/05/19 02:29:17;;;;;;;132.63;105.47;;;;;;;15.40;91.73;101767.97;2081344;28;44717;-68
2022/05/19 02:30:26;;;;;;;134.18;100.93;;;;;;;15.37;91.36;101761.78;2079609;28;43156;-66
2022/05/19 02:31:28;;;;;;;145.13;112.38;;;;;;;15.40;92.44;101762.56;2072901;28;45667;-68
2022/05/19 02:32:30;;;;;;;129.00;100.30;;;;;;;15.40;91.92;101767.97;2081290;28;20164;-68
2022/05/19 02:33:32;;;;;;;138.07;107.47;;;;;;;15.40;92.15;101767.09;2087254;28;46393;-68
2022/05/19 02:34:34;;;;;;;115.50;91.18;;;;;;;15.36;91.89;101760.91;2088392;28;43136;-68
2022/05/19 02:35:38;;;;;;;138.00;108.53;;;;;;;15.37;92.07;101761.78;2086906;28;45287;-68
2022/05/19 02:36:40;;;;;;;109.18;87.40;;;;;;;15.36;92.01;101755.50;2079502;28;46255;-67
2022/05/19 02:37:44;;;;;;;125.60;96.80;;;;;;;15.35;91.91;101759.13;2071729;28;44592;-68
2022/05/19 02:38:48;;;;;;;118.93;93.93;;;;;;;15.33;91.83;101758.28;2071469;28;43308;-68
2022/05/19 02:39:51;;;;;;;129.93;100.85;;;;;;;15.33;91.92;101760.09;2072832;28;20042;-68
2022/05/19 02:40:53;;;;;;;114.50;92.03;;;;;;;15.31;91.79;101756.53;2080812;28;20073;-68
2022/05/19 02:41:55;;;;;;;126.40;96.80;;;;;;;15.30;91.88;101755.66;2088783;28;20933;-68
2022/05/19 02:42:58;;;;;;;123.50;96.35;;;;;;;15.28;91.86;101753.00;2088357;28;35827;-68
2022/05/19 02:44:00;;;;;;;115.22;91.43;;;;;;;15.27;92.01;101756.66;2087929;28;44043;-68
2022/05/19 02:45:02;;;;;;;117.38;91.22;;;;;;;15.24;91.98;101756.72;2086935;28;44822;-68
2022/05/19 02:46:04;;;;;;;115.22;91.43;;;;;;;15.21;91.71;101751.41;2087491;28;42766;-68
2022/05/19 02:47:05;;;;;;;121.70;96.47;;;;;;;15.18;92.28;101756.03;2088342;28;45371;-68
2022/05/19 02:48:09;;;;;;;126.63;96.85;;;;;;;15.15;91.76;101754.31;2087726;28;44658;-68
2022/05/19 02:49:11;;;;;;;134.30;101.85;;;;;;;15.15;92.10;101756.13;2079268;28;43326;-68
2022/05/19 02:50:14;;;;;;;117.78;92.82;;;;;;;15.14;92.54;101757.91;2078857;28;43737;-68
2022/05/19 02:51:16;;;;;;;113.85;89.40;;;;;;;15.11;92.30;101760.72;2079478;28;44106;-68
2022/05/19 02:52:18;;;;;;;116.18;93.38;;;;;;;15.09;92.15;101757.16;2079625;28;40162;-68
2022/05/19 02:53:20;;;;;;;118.60;93.97;;;;;;;15.07;92.14;101765.31;2088209;28;43078;-68
2022/05/19 02:54:22;;;;;;;118.05;94.32;;;;;;;15.04;92.47;101764.53;2088001;28;45493;-69
2022/05/19 02:55:24;;;;;;;131.18;101.28;;;;;;;15.04;92.33;101756.44;2089292;28;32899;-68
2022/05/19 02:56:30;;;;;;;120.05;96.68;;;;;;;15.02;92.62;101760.97;2080480;28;20160;-68
2022/05/19 02:57:32;;;;;;;120.88;93.75;;;;;;;15.01;92.44;101760.09;2071847;28;44091;-68
2022/05/19 02:58:35;;;;;;;125.35;96.03;;;;;;;15.00;92.86;101760.13;2079318;28;44691;-67
2022/05/19 02:59:39;;;;;;;123.18;97.53;;;;;;;15.01;92.75;101759.22;2088081;28;34474;-68
2022/05/19 03:00:47;;;;;;;134.95;102.43;;;;;;;15.03;93.22;101760.94;2087962;28;31826;-68
2022/05/19 03:01:48;;;;;;;150.00;112.30;;;;;;;15.08;93.83;101763.50;2078864;28;44850;-68
2022/05/19 03:02:53;;;;;;;143.57;110.00;;;;;;;15.06;93.58;101766.25;2078454;28;44519;-68
2022/05/19 03:03:55;;;;;;;153.52;115.43;;;;;;;15.08;93.98;101761.69;2087307;28;45923;-68
2022/05/19 03:04:58;;;;;;;150.00;116.45;;;;;;;15.13;94.17;101771.44;2078960;28;31103;-67
2022/05/19 03:06:02;;;;;;;143.25;114.50;;;;;;;15.15;94.17;101767.78;2071272;28;45154;-68
2022/05/19 03:07:05;;;;;;;170.02;122.53;;;;;;;15.19;94.29;101766.78;2079554;28;43521;-67
2022/05/19 03:08:08;;;;;;;152.85;115.53;;;;;;;15.14;93.54;101766.00;2078811;28;43919;-68
2022/05/19 03:09:10;;;;;;;162.02;121.20;;;;;;;15.21;94.25;101761.34;2080459;28;20897;-68
2022/05/19 03:10:12;;;;;;;159.70;119.78;;;;;;;15.16;93.61;101764.16;2087931;28;43798;-66
2022/05/19 03:11:14;;;;;;;153.88;114.68;;;;;;;15.16;93.67;101761.44;2087485;28;47095;-67
2022/05/19 03:12:16;;;;;;;170.68;124.05;;;;;;;15.19;94.04;101760.50;2079234;28;44978;-68
2022/05/19 03:13:22;;;;;;;164.25;121.68;;;;;;;15.21;94.08;101761.34;2079126;28;43093;-68
2022/05/19 03:14:23;;;;;;;167.95;125.82;;;;;;;15.21;94.23;101762.22;2087910;28;40217;-69
2022/05/19 03:15:25;;;;;;;177.05;128.85;;;;;;;15.20;93.95;101759.56;2087498;28;42914;-68
2022/05/19 03:16:28;;;;;;;154.05;115.88;;;;;;;15.16;93.61;101757.88;2088651;28;20091;-68
2022/05/19 03:17:29;;;;;;;153.25;116.55;;;;;;;15.12;93.40;101759.78;2087596;28;43337;-68
2022/05/19 03:18:31;;;;;;;165.68;123.30;;;;;;;15.15;94.00;101765.09;2088345;28;44285;-68
2022/05/19 03:19:34;;;;;;;168.80;125.15;;;;;;;15.15;94.43;101761.53;2087005;28;44699;-68
2022/05/19 03:20:36;;;;;;;160.75;117.18;;;;;;;15.10;93.65;101758.94;2088044;28;44499;-68
2022/05/19 03:21:41;;;;;;;136.15;105.75;;;;;;;15.07;93.43;101754.53;2088387;28;20076;-68
2022/05/19 03:22:43;;;;;;;155.93;116.07;;;;;;;15.08;93.79;101756.28;2087877;28;41101;-68
2022/05/19 03:23:45;;;;;;;160.02;119.20;;;;;;;15.07;94.20;101754.53;2087766;28;45458;-68
2022/05/19 03:24:47;;;;;;;162.25;120.05;;;;;;;15.07;93.96;101756.31;2087609;28;45354;-68
2022/05/19 03:25:49;;;;;;;175.13;129.07;;;;;;;15.07;93.85;101757.25;2089337;28;43514;-69
2022/05/19 03:26:52;;;;;;;164.40;122.40;;;;;;;15.04;93.97;101765.41;2088862;28;20026;-67
2022/05/19 03:27:53;;;;;;;161.07;122.85;;;;;;;15.04;93.99;101759.13;2078797;28;45856;-68
2022/05/19 03:28:55;;;;;;;174.43;126.50;;;;;;;15.07;94.30;101759.03;2080265;28;20046;-68
2022/05/19 03:29:57;;;;;;;167.50;123.03;;;;;;;15.05;94.35;101758.19;2086857;28;44802;-68
2022/05/19 03:30:59;;;;;;;139.68;104.07;;;;;;;15.02;93.90;101753.78;2079217;28;44627;-68
2022/05/19 03:32:00;;;;;;;144.40;107.22;;;;;;;15.03;93.96;101757.34;2078782;28;43313;-68
2022/05/19 03:33:02;;;;;;;159.07;117.32;;;;;;;15.03;93.96;101754.66;2087651;28;45696;-68
2022/05/19 03:34:04;;;;;;;175.68;125.05;;;;;;;15.03;94.25;101754.66;2070361;28;45469;-69
2022/05/19 03:35:06;;;;;;;156.18;116.25;;;;;;;15.02;94.08;101753.78;2054591;28;42351;-69
2022/05/19 03:36:10;;;;;;;160.32;117.57;;;;;;;15.01;93.87;101756.53;2070582;28;42270;-68
2022/05/19 03:37:13;;;;;;;153.80;113.60;;;;;;;15.01;93.95;101759.22;2078957;28;44303;-69
2022/05/19 03:38:15;;;;;;;134.52;100.43;;;;;;;14.99;93.81;101767.34;2079753;28;44683;-68
2022/05/19 03:39:18;;;;;;;136.77;103.05;;;;;;;14.99;93.86;101761.06;2087524;28;43823;-69
2022/05/19 03:40:19;;;;;;;121.35;90.38;;;;;;;15.02;94.09;101759.19;2087550;28;46864;-68
2022/05/19 03:41:22;;;;;;;146.07;108.68;;;;;;;15.01;93.71;101761.91;2079226;28;43411;-68
2022/05/19 03:42:24;;;;;;;159.80;119.55;;;;;;;15.02;93.90;101758.28;2078837;28;44470;-68
2022/05/19 03:43:26;;;;;;;158.73;116.57;;;;;;;15.04;93.89;101764.53;2087027;28;46340;-68
2022/05/19 03:44:28;;;;;;;151.68;112.68;;;;;;;15.05;93.46;101758.19;2086508;28;43953;-69
2022/05/19 03:45:29;;;;;;;152.48;112.32;;;;;;;15.07;93.77;101765.31;2087488;28;37780;-68
2022/05/19 03:46:31;;;;;;;141.32;107.68;;;;;;;15.10;93.67;101768.88;2087502;28;45478;-69
2022/05/19 03:47:33;;;;;;;153.52;110.85;;;;;;;15.11;94.02;101760.72;2087805;28;44237;-69
2022/05/19 03:48:37;;;;;;;137.27;102.18;;;;;;;15.13;93.34;101769.66;2087159;28;45384;-68
2022/05/19 03:49:39;;;;;;;124.90;92.90;;;;;;;15.15;93.32;101767.78;2087730;28;44330;-69
2022/05/19 03:50:45;;;;;;;154.55;115.22;;;;;;;15.20;92.85;101762.25;2086603;28;44802;-68
2022/05/19 03:51:47;;;;;;;155.50;118.72;;;;;;;15.25;93.69;101761.22;2078878;28;44286;-69
2022/05/19 03:52:48;;;;;;;147.55;109.72;;;;;;;15.29;93.25;101764.72;2078842;28;43775;-69
2022/05/19 03:53:54;;;;;;;128.35;96.95;;;;;;;15.31;92.76;101759.22;2088482;28;20079;-69
2022/05/19 03:54:55;;;;;;;149.95;110.50;;;;;;;15.35;92.50;101758.25;2087496;28;43426;-69
2022/05/19 03:55:57;;;;;;;134.48;106.20;;;;;;;15.39;92.30;101757.22;2079471;28;28748;-68
2022/05/19 03:56:59;;;;;;;142.02;107.35;;;;;;;15.44;92.54;101760.66;2078736;28;45784;-68
2022/05/19 03:58:00;;;;;;;143.50;110.22;;;;;;;15.48;92.15;101759.63;2087622;28;45473;-68
2022/05/19 03:59:04;;;;;;;148.40;108.82;;;;;;;15.54;91.96;101758.56;2070229;28;45189;-67
2022/05/19 04:00:07;;;;;;;147.18;111.53;;;;;;;15.58;92.11;101754.84;2056194;28;20039;-68
2022/05/19 04:01:13;;;;;;;112.93;87.32;;;;;;;15.66;91.42;101756.34;2073420;28;20125;-68
2022/05/19 04:02:15;;;;;;;139.85;101.82;;;;;;;15.72;91.25;101758.00;2087529;28;44476;-68
2022/05/19 04:03:34;;;;;;;135.20;100.03;;;;;;;15.82;90.77;101756.78;2078915;28;45257;-68
2022/05/19 04:04:36;;;;;;;132.07;100.03;;;;;;;15.92;90.09;101749.28;2070845;28;41742;-68
2022/05/19 04:05:40;;;;;;;139.43;101.25;;;;;;;16.05;89.94;101744.38;2078644;28;45645;-67
2022/05/19 04:06:42;;;;;;;123.28;94.88;;;;;;;16.20;88.89;101745.66;2078376;28;45344;-68
2022/05/19 04:07:43;;;;;;;123.43;95.53;;;;;;;16.32;88.27;101749.78;2062366;28;31606;-68
2022/05/19 04:08:45;;;;;;;106.22;82.68;;;;;;;16.45;87.58;101747.53;2070938;28;44706;-68
2022/05/19 04:09:47;;;;;;;114.88;87.63;;;;;;;16.53;87.11;101749.06;2086702;28;45280;-68
2022/05/19 04:10:50;;;;;;;109.63;84.90;;;;;;;16.61;87.34;101740.66;2088788;28;20172;-68
2022/05/19 04:11:51;;;;;;;113.07;85.93;;;;;;;16.64;86.36;101745.97;2087192;28;43870;-68
2022/05/19 04:12:53;;;;;;;100.15;81.55;;;;;;;16.73;86.58;101744.75;2087131;28;45173;-68
2022/05/19 04:13:55;;;;;;;105.20;84.45;;;;;;;16.78;86.02;101750.91;2087173;28;44961;-67
2022/05/19 04:14:57;;;;;;;114.35;88.50;;;;;;;16.88;85.55;101751.47;2078098;28;43975;-68
2022/05/19 04:15:59;;;;;;;98.85;77.30;;;;;;;17.00;85.50;101748.31;2078326;28;46054;-68
2022/05/19 04:17:04;;;;;;;107.22;84.97;;;;;;;17.11;85.35;101747.91;2079023;28;43403;-68
2022/05/19 04:18:06;;;;;;;106.13;80.15;;;;;;;17.16;84.78;101745.94;2078702;28;42504;-68
2022/05/19 04:19:08;;;;;;;103.25;85.05;;;;;;;17.19;83.86;101745.78;2078984;28;44549;-68
2022/05/19 04:20:12;;;;;;;89.95;71.78;;;;;;;17.24;83.97;101749.22;2087124;28;45233;-68
2022/05/19 04:21:14;;;;;;;85.50;68.00;;;;;;;17.25;83.75;101745.56;2087337;28;45331;-68
2022/05/19 04:22:16;;;;;;;86.20;68.63;;;;;;;17.24;83.69;101749.22;2087416;28;45117;-68
2022/05/19 04:23:17;;;;;;;96.90;78.18;;;;;;;17.20;83.74;101749.41;2087011;28;31997;-68
2022/05/19 04:24:19;;;;;;;91.72;73.95;;;;;;;17.15;83.95;101745.03;2086588;28;44439;-68
2022/05/19 04:25:22;;;;;;;101.43;81.55;;;;;;;17.04;84.42;101749.09;2079011;28;43343;-68
2022/05/19 04:26:23;;;;;;;101.40;82.78;;;;;;;17.05;84.10;101748.13;2078698;28;44267;-68
2022/05/19 04:27:27;;;;;;;101.50;79.90;;;;;;;16.99;84.29;101743.84;2078903;28;43400;-68
2022/05/19 04:28:29;;;;;;;102.85;82.10;;;;;;;16.97;84.46;101745.72;2078823;28;44458;-68
2022/05/19 04:29:31;;;;;;;88.07;72.85;;;;;;;16.92;84.33;101753.13;2078461;28;43151;-68
2022/05/19 04:30:32;;;;;;;94.68;72.82;;;;;;;16.95;84.73;101755.72;2078231;28;44991;-68
2022/05/19 04:31:36;;;;;;;96.47;75.78;;;;;;;16.94;84.41;101752.13;2087487;28;20972;-68
2022/05/19 04:32:38;;;;;;;95.22;73.35;;;;;;;16.97;84.23;101753.81;2087458;28;34340;-68
2022/05/19 04:33:40;;;;;;;98.00;76.15;;;;;;;16.95;84.30;101755.72;2087372;28;45071;-68
2022/05/19 04:34:42;;;;;;;97.45;76.40;;;;;;;16.92;84.58;101750.41;2087086;28;44643;-68
2022/05/19 04:35:44;;;;;;;104.55;82.85;;;;;;;16.92;84.06;101747.69;2087789;28;45314;-68
2022/05/19 04:36:46;;;;;;;93.40;75.78;;;;;;;16.98;84.33;101747.50;2087292;28;45147;-68
2022/05/19 04:37:49;;;;;;;92.32;75.50;;;;;;;17.03;84.28;101750.00;2086699;28;42165;-67
2022/05/19 04:38:51;;;;;;;93.88;73.70;;;;;;;17.03;83.45;101750.00;2078274;28;43034;-68
2022/05/19 04:39:53;;;;;;;98.93;78.10;;;;;;;17.00;83.62;101751.03;2070141;28;45502;-68
2022/05/19 04:41:00;;;;;;;98.97;77.45;;;;;;;17.03;83.76;101753.63;2078139;28;43931;-68
2022/05/19 04:42:11;;;;;;;91.88;71.50;;;;;;;17.06;83.16;101756.19;2077671;28;46539;-69
2022/05/19 04:43:13;;;;;;;94.18;71.72;;;;;;;17.09;82.82;101750.69;2080506;28;43157;-68
2022/05/19 04:44:18;;;;;;;89.00;71.65;;;;;;;17.10;83.29;101746.13;2087541;28;44500;-68
2022/05/19 04:45:20;;;;;;;89.40;73.32;;;;;;;17.13;83.09;101746.91;2087045;28;44835;-68
2022/05/19 04:46:22;;;;;;;86.50;68.47;;;;;;;17.15;83.07;101747.72;2087666;28;45209;-67
2022/05/19 04:47:24;;;;;;;84.32;65.85;;;;;;;17.17;82.89;101745.88;2086856;28;46805;-68
2022/05/19 04:48:26;;;;;;;95.30;74.55;;;;;;;17.21;83.08;101738.53;2079032;28;44225;-68
2022/05/19 04:49:32;;;;;;;85.55;69.75;;;;;;;17.27;82.86;101748.22;2079989;28;20106;-68
2022/05/19 04:50:34;;;;;;;82.65;65.25;;;;;;;17.30;82.33;101749.00;2087535;28;46286;-68
2022/05/19 04:51:36;;;;;;;85.53;68.03;;;;;;;17.39;82.26;101752.28;2087637;28;36773;-68
2022/05/19 04:52:38;;;;;;;88.40;68.88;;;;;;;17.46;81.67;101748.38;2086866;28;46567;-68
2022/05/19 04:53:41;;;;;;;90.13;70.10;;;;;;;17.50;81.38;101745.50;2087316;28;45814;-68
2022/05/19 04:54:42;;;;;;;97.32;77.05;;;;;;;17.49;81.49;101743.72;2087066;28;45299;-69
2022/05/19 04:55:44;;;;;;;82.15;66.22;;;;;;;17.61;81.20;101749.63;2087596;28;46044;-68
2022/05/19 04:56:47;;;;;;;86.40;68.45;;;;;;;17.70;80.66;101751.97;2070101;28;43523;-68
2022/05/19 04:57:52;;;;;;;94.30;71.45;;;;;;;17.75;80.42;101747.25;2070353;28;45575;-68